Avra Miteras — D5ND3 — position and weather

sailwx.info

Track history (hours):
 
Tides and Currents Weather Stations Pressure Air Temp Water Temp Dewpoint Dewpoint Depression Visibility Wind Speed Wind Dir Waves Ship Positions

Avra Miteras

Last reported at 2018-Aug-19 18:15 UTC. Time now 2018-Aug-19 22:54 UTC.
Position N 41°25' E 028°60'.

Length 157 m; draft 6.7 m.

Type: Cargo ship. MMSI: 538005447.

Date/timePositionNaut miles runAvg speedWind from/ knotsBaromVisibWave heightAir tempDewpointWater temp
2018-Aug-19 18:15N 41°25' E 028°60'0 0.5
2018-Aug-19 17:42N 41°25' E 029°00'0 0.6
2018-Aug-19 17:30N 41°25' E 029°00'0 0.6
2018-Aug-19 17:00N 41°26' E 029°00'0 0.7
2018-Aug-19 16:31N 41°26' E 028°60'3 5.3
2018-Aug-19 15:59N 41°29' E 028°59'613.4
2018-Aug-19 15:30N 41°35' E 028°59'714.2
2018-Aug-19 15:00N 41°42' E 028°56'714.2
2018-Aug-19 14:30N 41°48' E 028°53'714.3
2018-Aug-19 14:00N 41°55' E 028°50'714.3
2018-Aug-19 13:30N 42°02' E 028°46'1114.2
2018-Aug-19 12:45N 42°12' E 028°41'914.2
2018-Aug-19 12:08N 42°20' E 028°38'514.3
2018-Aug-19 11:46N 42°25' E 028°35'414.4
2018-Aug-19 11:28N 42°29' E 028°33'714.4
2018-Aug-19 11:00N 42°36' E 028°30'714.5
2018-Aug-19 10:31N 42°42' E 028°27'814.7
2018-Aug-19 10:00N 42°49' E 028°24'25 0.7
2018-Aug-17 21:27N 43°04' E 027°57'0 0.1
2018-Aug-17 20:42N 43°04' E 027°57'0 0.0
2018-Aug-17 20:24N 43°04' E 027°57'0 0.0
2018-Aug-17 20:00N 43°04' E 027°57'0 0.0
2018-Aug-17 18:42N 43°04' E 027°57'0 0.0
2018-Aug-17 17:51N 43°04' E 027°57'1 0.1
2018-Aug-17 05:53N 43°04' E 027°58'137 3.8
2018-Aug-15 17:39N 40°47' E 027°54'  
Track history (hours):
 
Tides and Currents Weather Stations Pressure Air Temp Water Temp Dewpoint Dewpoint Depression Visibility Wind Speed Wind Dir Waves Ship Positions

Avra Miteras

Last reported at 2018-Aug-19 18:15 UTC. Time now 2018-Aug-19 22:54 UTC.
Position N 41°25' E 028°60'.

Length 157 m; draft 6.7 m.

Type: Cargo ship. MMSI: 538005447.

Date/timePositionNaut miles runAvg speedWind from/ knotsBaromVisibWave heightAir tempDewpointWater temp
2018-Aug-19 18:15N 41°25' E 028°60'0 0.5
2018-Aug-19 17:42N 41°25' E 029°00'0 0.6
2018-Aug-19 17:30N 41°25' E 029°00'0 0.6
2018-Aug-19 17:00N 41°26' E 029°00'0 0.7
2018-Aug-19 16:31N 41°26' E 028°60'3 5.3
2018-Aug-19 15:59N 41°29' E 028°59'613.4
2018-Aug-19 15:30N 41°35' E 028°59'714.2
2018-Aug-19 15:00N 41°42' E 028°56'714.2
2018-Aug-19 14:30N 41°48' E 028°53'714.3
2018-Aug-19 14:00N 41°55' E 028°50'714.3
2018-Aug-19 13:30N 42°02' E 028°46'1114.2
2018-Aug-19 12:45N 42°12' E 028°41'914.2
2018-Aug-19 12:08N 42°20' E 028°38'514.3
2018-Aug-19 11:46N 42°25' E 028°35'414.4
2018-Aug-19 11:28N 42°29' E 028°33'714.4
2018-Aug-19 11:00N 42°36' E 028°30'714.5
2018-Aug-19 10:31N 42°42' E 028°27'814.7
2018-Aug-19 10:00N 42°49' E 028°24'25 0.7
2018-Aug-17 21:27N 43°04' E 027°57'0 0.1
2018-Aug-17 20:42N 43°04' E 027°57'0 0.0
2018-Aug-17 20:24N 43°04' E 027°57'0 0.0
2018-Aug-17 20:00N 43°04' E 027°57'0 0.0
2018-Aug-17 18:42N 43°04' E 027°57'0 0.0
2018-Aug-17 17:51N 43°04' E 027°57'1 0.1
2018-Aug-17 05:53N 43°04' E 027°58'137 3.8
2018-Aug-15 17:39N 40°47' E 027°54'  

Dump ship's entire track history